sensor_id;sensor_type;location;lat;lon;timestamp;P1;durP1;ratioP1;P2;durP2;ratioP2
20928;SDS011;21895;47.072;15.132;2023-06-19T00:02:24;6.45;;;3.70;;
20928;SDS011;21895;47.072;15.132;2023-06-19T00:04:51;4.72;;;2.95;;
20928;SDS011;21895;47.072;15.132;2023-06-19T00:07:18;9.32;;;3.65;;
20928;SDS011;21895;47.072;15.132;2023-06-19T00:09:46;6.10;;;3.20;;
20928;SDS011;21895;47.072;15.132;2023-06-19T00:12:13;7.50;;;3.90;;
20928;SDS011;21895;47.072;15.132;2023-06-19T00:14:39;8.55;;;4.60;;
20928;SDS011;21895;47.072;15.132;2023-06-19T00:17:06;8.80;;;3.78;;
20928;SDS011;21895;47.072;15.132;2023-06-19T00:19:32;6.57;;;3.53;;
20928;SDS011;21895;47.072;15.132;2023-06-19T00:22:02;8.50;;;4.03;;
20928;SDS011;21895;47.072;15.132;2023-06-19T00:24:29;8.18;;;4.43;;
20928;SDS011;21895;47.072;15.132;2023-06-19T00:26:56;7.20;;;4.05;;
20928;SDS011;21895;47.072;15.132;2023-06-19T00:29:28;7.03;;;3.65;;
20928;SDS011;21895;47.072;15.132;2023-06-19T00:31:58;12.27;;;4.15;;
20928;SDS011;21895;47.072;15.132;2023-06-19T00:34:25;5.93;;;3.53;;
20928;SDS011;21895;47.072;15.132;2023-06-19T00:36:54;10.05;;;4.55;;
20928;SDS011;21895;47.072;15.132;2023-06-19T00:39:22;8.73;;;4.25;;
20928;SDS011;21895;47.072;15.132;2023-06-19T00:41:50;7.10;;;3.80;;
20928;SDS011;21895;47.072;15.132;2023-06-19T00:44:17;6.60;;;3.58;;
20928;SDS011;21895;47.072;15.132;2023-06-19T00:46:44;9.35;;;4.22;;
20928;SDS011;21895;47.072;15.132;2023-06-19T00:49:11;9.07;;;4.00;;
20928;SDS011;21895;47.072;15.132;2023-06-19T00:51:40;6.93;;;3.95;;
20928;SDS011;21895;47.072;15.132;2023-06-19T00:54:07;13.07;;;3.85;;
20928;SDS011;21895;47.072;15.132;2023-06-19T00:56:34;7.53;;;3.65;;
20928;SDS011;21895;47.072;15.132;2023-06-19T00:59:15;7.47;;;4.03;;
20928;SDS011;21895;47.072;15.132;2023-06-19T01:01:44;10.57;;;5.03;;
20928;SDS011;21895;47.072;15.132;2023-06-19T01:04:12;8.32;;;4.10;;
20928;SDS011;21895;47.072;15.132;2023-06-19T01:12:05;8.10;;;3.60;;
20928;SDS011;21895;47.072;15.132;2023-06-19T01:15:25;7.60;;;3.62;;
20928;SDS011;21895;47.072;15.132;2023-06-19T01:17:54;9.20;;;4.22;;
20928;SDS011;21895;47.072;15.132;2023-06-19T01:20:24;8.18;;;4.32;;
20928;SDS011;21895;47.072;15.132;2023-06-19T01:22:51;8.07;;;3.53;;
20928;SDS011;21895;47.072;15.132;2023-06-19T01:25:23;5.87;;;3.37;;
20928;SDS011;21895;47.072;15.132;2023-06-19T01:27:50;12.02;;;4.50;;
20928;SDS011;21895;47.072;15.132;2023-06-19T01:30:17;7.55;;;3.85;;
20928;SDS011;21895;47.072;15.132;2023-06-19T01:32:53;8.20;;;4.18;;
20928;SDS011;21895;47.072;15.132;2023-06-19T01:35:42;8.57;;;3.53;;
20928;SDS011;21895;47.072;15.132;2023-06-19T01:38:12;7.28;;;3.75;;
20928;SDS011;21895;47.072;15.132;2023-06-19T01:40:40;10.57;;;3.55;;
20928;SDS011;21895;47.072;15.132;2023-06-19T01:43:08;11.45;;;4.35;;
20928;SDS011;21895;47.072;15.132;2023-06-19T01:45:36;6.12;;;3.60;;
20928;SDS011;21895;47.072;15.132;2023-06-19T01:48:03;11.85;;;3.95;;
20928;SDS011;21895;47.072;15.132;2023-06-19T01:50:30;12.43;;;4.12;;
20928;SDS011;21895;47.072;15.132;2023-06-19T01:52:57;9.27;;;3.72;;
20928;SDS011;21895;47.072;15.132;2023-06-19T01:55:23;12.93;;;4.45;;
20928;SDS011;21895;47.072;15.132;2023-06-19T01:57:50;6.72;;;3.62;;
20928;SDS011;21895;47.072;15.132;2023-06-19T02:00:17;10.47;;;4.53;;
20928;SDS011;21895;47.072;15.132;2023-06-19T02:02:44;7.82;;;3.80;;
20928;SDS011;21895;47.072;15.132;2023-06-19T02:05:11;7.90;;;4.47;;
20928;SDS011;21895;47.072;15.132;2023-06-19T02:07:38;8.48;;;3.62;;
20928;SDS011;21895;47.072;15.132;2023-06-19T02:10:05;8.35;;;3.85;;
20928;SDS011;21895;47.072;15.132;2023-06-19T02:12:33;7.62;;;3.75;;
20928;SDS011;21895;47.072;15.132;2023-06-19T02:15:00;7.57;;;3.70;;
20928;SDS011;21895;47.072;15.132;2023-06-19T02:17:26;10.10;;;4.35;;
20928;SDS011;21895;47.072;15.132;2023-06-19T02:19:53;6.50;;;3.17;;
20928;SDS011;21895;47.072;15.132;2023-06-19T02:22:19;7.20;;;3.70;;
20928;SDS011;21895;47.072;15.132;2023-06-19T02:24:46;7.70;;;3.28;;
20928;SDS011;21895;47.072;15.132;2023-06-19T02:27:13;6.47;;;3.63;;
20928;SDS011;21895;47.072;15.132;2023-06-19T02:29:41;12.77;;;3.75;;
20928;SDS011;21895;47.072;15.132;2023-06-19T02:32:08;7.12;;;3.28;;
20928;SDS011;21895;47.072;15.132;2023-06-19T02:34:34;9.57;;;4.20;;
20928;SDS011;21895;47.072;15.132;2023-06-19T02:37:01;9.07;;;4.18;;
20928;SDS011;21895;47.072;15.132;2023-06-19T02:39:27;9.77;;;4.32;;
20928;SDS011;21895;47.072;15.132;2023-06-19T02:41:55;6.07;;;3.35;;
20928;SDS011;21895;47.072;15.132;2023-06-19T02:44:21;6.60;;;3.17;;
20928;SDS011;21895;47.072;15.132;2023-06-19T02:46:48;8.60;;;3.45;;
20928;SDS011;21895;47.072;15.132;2023-06-19T02:49:14;14.10;;;3.92;;
20928;SDS011;21895;47.072;15.132;2023-06-19T02:51:41;8.30;;;3.40;;
20928;SDS011;21895;47.072;15.132;2023-06-19T02:54:07;10.38;;;4.70;;
20928;SDS011;21895;47.072;15.132;2023-06-19T02:56:34;9.18;;;3.80;;
20928;SDS011;21895;47.072;15.132;2023-06-19T02:59:00;7.82;;;4.12;;
20928;SDS011;21895;47.072;15.132;2023-06-19T03:01:27;8.02;;;4.18;;
20928;SDS011;21895;47.072;15.132;2023-06-19T03:03:54;9.02;;;3.95;;
20928;SDS011;21895;47.072;15.132;2023-06-19T03:06:20;10.52;;;4.10;;
20928;SDS011;21895;47.072;15.132;2023-06-19T03:08:47;10.82;;;3.80;;
20928;SDS011;21895;47.072;15.132;2023-06-19T03:11:14;9.23;;;3.75;;
20928;SDS011;21895;47.072;15.132;2023-06-19T03:13:44;5.95;;;3.35;;
20928;SDS011;21895;47.072;15.132;2023-06-19T03:16:17;5.62;;;3.03;;
20928;SDS011;21895;47.072;15.132;2023-06-19T03:18:44;9.20;;;4.05;;
20928;SDS011;21895;47.072;15.132;2023-06-19T03:21:12;5.93;;;3.10;;
20928;SDS011;21895;47.072;15.132;2023-06-19T03:23:40;6.62;;;3.25;;
20928;SDS011;21895;47.072;15.132;2023-06-19T03:26:07;9.20;;;3.90;;
20928;SDS011;21895;47.072;15.132;2023-06-19T03:28:37;10.43;;;3.85;;
20928;SDS011;21895;47.072;15.132;2023-06-19T03:31:04;11.70;;;4.43;;
20928;SDS011;21895;47.072;15.132;2023-06-19T03:33:30;10.65;;;3.40;;
20928;SDS011;21895;47.072;15.132;2023-06-19T03:35:57;7.60;;;3.67;;
20928;SDS011;21895;47.072;15.132;2023-06-19T03:38:23;9.57;;;4.43;;
20928;SDS011;21895;47.072;15.132;2023-06-19T03:40:50;8.65;;;4.32;;
20928;SDS011;21895;47.072;15.132;2023-06-19T03:43:17;8.98;;;4.03;;
20928;SDS011;21895;47.072;15.132;2023-06-19T03:45:43;6.53;;;3.20;;
20928;SDS011;21895;47.072;15.132;2023-06-19T03:48:10;6.60;;;3.55;;
20928;SDS011;21895;47.072;15.132;2023-06-19T03:50:36;6.28;;;3.50;;
20928;SDS011;21895;47.072;15.132;2023-06-19T03:53:03;12.48;;;4.50;;
20928;SDS011;21895;47.072;15.132;2023-06-19T03:55:30;7.40;;;3.65;;
20928;SDS011;21895;47.072;15.132;2023-06-19T03:57:56;7.97;;;4.05;;
20928;SDS011;21895;47.072;15.132;2023-06-19T04:00:23;12.27;;;4.20;;
20928;SDS011;21895;47.072;15.132;2023-06-19T04:02:50;8.90;;;4.10;;
20928;SDS011;21895;47.072;15.132;2023-06-19T04:05:17;15.68;;;3.90;;
20928;SDS011;21895;47.072;15.132;2023-06-19T04:07:45;13.27;;;4.12;;
20928;SDS011;21895;47.072;15.132;2023-06-19T04:10:11;8.32;;;3.78;;
20928;SDS011;21895;47.072;15.132;2023-06-19T04:12:38;8.00;;;3.90;;
20928;SDS011;21895;47.072;15.132;2023-06-19T04:15:06;8.38;;;4.30;;
20928;SDS011;21895;47.072;15.132;2023-06-19T04:17:33;9.82;;;4.05;;
20928;SDS011;21895;47.072;15.132;2023-06-19T04:20:00;10.98;;;4.07;;
20928;SDS011;21895;47.072;15.132;2023-06-19T04:22:31;8.75;;;3.80;;
20928;SDS011;21895;47.072;15.132;2023-06-19T04:24:58;13.88;;;3.90;;
20928;SDS011;21895;47.072;15.132;2023-06-19T04:27:24;10.90;;;4.40;;
20928;SDS011;21895;47.072;15.132;2023-06-19T04:29:51;9.63;;;4.40;;
20928;SDS011;21895;47.072;15.132;2023-06-19T04:32:18;8.15;;;4.12;;
20928;SDS011;21895;47.072;15.132;2023-06-19T04:34:45;14.30;;;4.07;;
20928;SDS011;21895;47.072;15.132;2023-06-19T04:37:11;8.73;;;4.65;;
20928;SDS011;21895;47.072;15.132;2023-06-19T04:39:38;7.47;;;3.97;;
20928;SDS011;21895;47.072;15.132;2023-06-19T04:42:05;9.25;;;4.28;;
20928;SDS011;21895;47.072;15.132;2023-06-19T04:44:32;6.47;;;3.08;;
20928;SDS011;21895;47.072;15.132;2023-06-19T04:46:59;7.50;;;3.95;;
20928;SDS011;21895;47.072;15.132;2023-06-19T04:49:29;9.52;;;5.00;;
20928;SDS011;21895;47.072;15.132;2023-06-19T04:51:56;10.40;;;4.78;;
20928;SDS011;21895;47.072;15.132;2023-06-19T04:54:24;12.63;;;4.35;;
20928;SDS011;21895;47.072;15.132;2023-06-19T04:56:51;7.30;;;3.55;;
20928;SDS011;21895;47.072;15.132;2023-06-19T04:59:18;7.70;;;4.05;;
20928;SDS011;21895;47.072;15.132;2023-06-19T05:01:45;7.55;;;3.80;;
20928;SDS011;21895;47.072;15.132;2023-06-19T05:04:12;7.28;;;4.10;;
20928;SDS011;21895;47.072;15.132;2023-06-19T05:06:38;8.15;;;3.83;;
20928;SDS011;21895;47.072;15.132;2023-06-19T05:09:05;8.07;;;4.57;;
20928;SDS011;21895;47.072;15.132;2023-06-19T05:11:32;8.07;;;3.97;;
20928;SDS011;21895;47.072;15.132;2023-06-19T05:13:58;11.73;;;3.90;;
20928;SDS011;21895;47.072;15.132;2023-06-19T05:16:25;7.97;;;4.20;;
20928;SDS011;21895;47.072;15.132;2023-06-19T05:18:52;9.13;;;4.10;;
20928;SDS011;21895;47.072;15.132;2023-06-19T05:21:18;6.35;;;3.80;;
20928;SDS011;21895;47.072;15.132;2023-06-19T05:23:45;8.73;;;4.18;;
20928;SDS011;21895;47.072;15.132;2023-06-19T05:26:19;7.85;;;3.92;;
20928;SDS011;21895;47.072;15.132;2023-06-19T05:28:47;6.47;;;4.10;;
20928;SDS011;21895;47.072;15.132;2023-06-19T05:31:14;7.45;;;4.37;;
20928;SDS011;21895;47.072;15.132;2023-06-19T05:33:41;7.93;;;4.35;;
20928;SDS011;21895;47.072;15.132;2023-06-19T05:36:07;7.78;;;4.30;;
20928;SDS011;21895;47.072;15.132;2023-06-19T05:38:34;7.60;;;4.30;;
20928;SDS011;21895;47.072;15.132;2023-06-19T05:41:01;7.90;;;4.47;;
20928;SDS011;21895;47.072;15.132;2023-06-19T05:43:28;9.20;;;4.80;;
20928;SDS011;21895;47.072;15.132;2023-06-19T05:45:55;6.55;;;4.07;;
20928;SDS011;21895;47.072;15.132;2023-06-19T05:48:23;7.90;;;4.93;;
20928;SDS011;21895;47.072;15.132;2023-06-19T05:50:50;8.98;;;4.75;;
20928;SDS011;21895;47.072;15.132;2023-06-19T05:53:17;8.68;;;4.85;;
20928;SDS011;21895;47.072;15.132;2023-06-19T05:55:44;8.50;;;4.28;;
20928;SDS011;21895;47.072;15.132;2023-06-19T05:58:10;7.82;;;4.57;;
20928;SDS011;21895;47.072;15.132;2023-06-19T06:00:37;7.82;;;4.65;;
20928;SDS011;21895;47.072;15.132;2023-06-19T06:03:03;7.43;;;4.45;;
20928;SDS011;21895;47.072;15.132;2023-06-19T06:05:31;9.40;;;4.82;;
20928;SDS011;21895;47.072;15.132;2023-06-19T06:07:57;7.72;;;4.55;;
20928;SDS011;21895;47.072;15.132;2023-06-19T06:10:25;8.70;;;4.95;;
20928;SDS011;21895;47.072;15.132;2023-06-19T06:12:52;9.23;;;5.10;;
20928;SDS011;21895;47.072;15.132;2023-06-19T06:15:18;10.30;;;5.30;;
20928;SDS011;21895;47.072;15.132;2023-06-19T06:17:45;10.38;;;5.03;;
20928;SDS011;21895;47.072;15.132;2023-06-19T06:20:12;9.52;;;4.82;;
20928;SDS011;21895;47.072;15.132;2023-06-19T06:22:39;10.10;;;4.72;;
20928;SDS011;21895;47.072;15.132;2023-06-19T06:25:07;11.45;;;5.50;;
20928;SDS011;21895;47.072;15.132;2023-06-19T06:27:39;8.57;;;4.93;;
20928;SDS011;21895;47.072;15.132;2023-06-19T06:30:06;11.98;;;4.97;;
20928;SDS011;21895;47.072;15.132;2023-06-19T06:32:34;10.63;;;5.95;;
20928;SDS011;21895;47.072;15.132;2023-06-19T06:35:00;8.30;;;4.57;;
20928;SDS011;21895;47.072;15.132;2023-06-19T06:37:27;7.70;;;4.87;;
20928;SDS011;21895;47.072;15.132;2023-06-19T06:39:54;10.10;;;5.05;;
20928;SDS011;21895;47.072;15.132;2023-06-19T06:42:20;8.82;;;5.25;;
20928;SDS011;21895;47.072;15.132;2023-06-19T06:44:47;8.98;;;5.45;;
20928;SDS011;21895;47.072;15.132;2023-06-19T06:47:13;8.88;;;4.87;;
20928;SDS011;21895;47.072;15.132;2023-06-19T06:49:40;8.90;;;5.20;;
20928;SDS011;21895;47.072;15.132;2023-06-19T06:52:07;8.43;;;4.78;;
20928;SDS011;21895;47.072;15.132;2023-06-19T06:54:36;8.95;;;4.87;;
20928;SDS011;21895;47.072;15.132;2023-06-19T06:57:03;11.68;;;5.25;;
20928;SDS011;21895;47.072;15.132;2023-06-19T06:59:30;11.40;;;5.70;;
20928;SDS011;21895;47.072;15.132;2023-06-19T07:01:57;8.27;;;4.78;;
20928;SDS011;21895;47.072;15.132;2023-06-19T07:04:24;8.48;;;5.32;;
20928;SDS011;21895;47.072;15.132;2023-06-19T07:06:50;8.13;;;4.85;;
20928;SDS011;21895;47.072;15.132;2023-06-19T07:09:17;8.98;;;4.90;;
20928;SDS011;21895;47.072;15.132;2023-06-19T07:11:44;9.23;;;4.90;;
20928;SDS011;21895;47.072;15.132;2023-06-19T07:14:10;7.85;;;4.82;;
20928;SDS011;21895;47.072;15.132;2023-06-19T07:16:37;8.80;;;4.90;;
20928;SDS011;21895;47.072;15.132;2023-06-19T07:19:04;9.57;;;5.57;;
20928;SDS011;21895;47.072;15.132;2023-06-19T07:21:30;7.55;;;5.12;;
20928;SDS011;21895;47.072;15.132;2023-06-19T07:23:57;8.13;;;4.95;;
20928;SDS011;21895;47.072;15.132;2023-06-19T07:26:24;9.20;;;5.45;;
20928;SDS011;21895;47.072;15.132;2023-06-19T07:28:51;8.35;;;4.65;;
20928;SDS011;21895;47.072;15.132;2023-06-19T07:31:18;7.78;;;4.90;;
20928;SDS011;21895;47.072;15.132;2023-06-19T07:33:44;10.23;;;5.18;;
20928;SDS011;21895;47.072;15.132;2023-06-19T07:36:11;7.62;;;5.00;;
20928;SDS011;21895;47.072;15.132;2023-06-19T07:38:40;9.10;;;5.55;;
20928;SDS011;21895;47.072;15.132;2023-06-19T07:41:08;7.93;;;5.12;;
20928;SDS011;21895;47.072;15.132;2023-06-19T07:43:35;8.75;;;4.97;;
20928;SDS011;21895;47.072;15.132;2023-06-19T07:46:03;12.10;;;5.12;;
20928;SDS011;21895;47.072;15.132;2023-06-19T07:48:30;9.65;;;4.50;;
20928;SDS011;21895;47.072;15.132;2023-06-19T07:50:57;11.52;;;5.45;;
20928;SDS011;21895;47.072;15.132;2023-06-19T07:53:23;7.93;;;4.87;;
20928;SDS011;21895;47.072;15.132;2023-06-19T07:55:50;10.05;;;4.87;;
20928;SDS011;21895;47.072;15.132;2023-06-19T07:58:16;7.55;;;4.65;;
20928;SDS011;21895;47.072;15.132;2023-06-19T08:00:43;7.62;;;4.80;;
20928;SDS011;21895;47.072;15.132;2023-06-19T08:03:10;8.40;;;4.93;;
20928;SDS011;21895;47.072;15.132;2023-06-19T08:05:37;9.15;;;4.95;;
20928;SDS011;21895;47.072;15.132;2023-06-19T08:08:04;7.65;;;4.70;;
20928;SDS011;21895;47.072;15.132;2023-06-19T08:10:31;8.23;;;5.03;;
20928;SDS011;21895;47.072;15.132;2023-06-19T08:12:58;16.08;;;5.22;;
20928;SDS011;21895;47.072;15.132;2023-06-19T08:15:25;6.90;;;4.53;;
20928;SDS011;21895;47.072;15.132;2023-06-19T08:17:52;7.87;;;4.72;;
20928;SDS011;21895;47.072;15.132;2023-06-19T08:20:18;8.38;;;5.22;;
20928;SDS011;21895;47.072;15.132;2023-06-19T08:22:46;6.78;;;4.72;;
20928;SDS011;21895;47.072;15.132;2023-06-19T08:25:12;8.13;;;5.03;;
20928;SDS011;21895;47.072;15.132;2023-06-19T08:27:39;8.77;;;4.95;;
20928;SDS011;21895;47.072;15.132;2023-06-19T08:30:06;8.68;;;5.28;;
20928;SDS011;21895;47.072;15.132;2023-06-19T08:32:33;6.72;;;4.40;;
20928;SDS011;21895;47.072;15.132;2023-06-19T08:35:00;10.63;;;4.82;;
20928;SDS011;21895;47.072;15.132;2023-06-19T08:37:27;8.38;;;5.22;;
20928;SDS011;21895;47.072;15.132;2023-06-19T08:39:53;9.93;;;4.60;;
20928;SDS011;21895;47.072;15.132;2023-06-19T08:42:21;7.62;;;4.68;;
20928;SDS011;21895;47.072;15.132;2023-06-19T08:44:48;7.30;;;4.62;;
20928;SDS011;21895;47.072;15.132;2023-06-19T08:47:15;6.95;;;4.60;;
20928;SDS011;21895;47.072;15.132;2023-06-19T08:49:42;9.30;;;4.62;;
20928;SDS011;21895;47.072;15.132;2023-06-19T08:52:09;9.85;;;5.00;;
20928;SDS011;21895;47.072;15.132;2023-06-19T08:54:35;7.93;;;4.85;;
20928;SDS011;21895;47.072;15.132;2023-06-19T08:57:09;8.75;;;5.10;;
20928;SDS011;21895;47.072;15.132;2023-06-19T08:59:37;8.85;;;5.00;;
20928;SDS011;21895;47.072;15.132;2023-06-19T09:02:04;8.75;;;4.68;;
20928;SDS011;21895;47.072;15.132;2023-06-19T09:04:32;7.53;;;5.10;;
20928;SDS011;21895;47.072;15.132;2023-06-19T09:07:00;7.68;;;5.22;;
20928;SDS011;21895;47.072;15.132;2023-06-19T09:09:28;9.75;;;4.93;;
20928;SDS011;21895;47.072;15.132;2023-06-19T09:11:56;7.75;;;4.75;;
20928;SDS011;21895;47.072;15.132;2023-06-19T09:14:57;7.47;;;4.45;;
20928;SDS011;21895;47.072;15.132;2023-06-19T09:17:23;8.77;;;5.32;;
20928;SDS011;21895;47.072;15.132;2023-06-19T09:19:52;8.52;;;4.93;;
20928;SDS011;21895;47.072;15.132;2023-06-19T09:22:23;9.13;;;4.65;;
20928;SDS011;21895;47.072;15.132;2023-06-19T09:24:50;8.85;;;4.65;;
20928;SDS011;21895;47.072;15.132;2023-06-19T09:27:18;7.37;;;4.55;;
20928;SDS011;21895;47.072;15.132;2023-06-19T09:29:46;6.97;;;4.18;;
20928;SDS011;21895;47.072;15.132;2023-06-19T09:32:22;6.93;;;4.65;;
20928;SDS011;21895;47.072;15.132;2023-06-19T09:34:52;7.57;;;5.03;;
20928;SDS011;21895;47.072;15.132;2023-06-19T09:37:26;7.50;;;4.62;;
20928;SDS011;21895;47.072;15.132;2023-06-19T09:39:55;8.15;;;4.90;;
20928;SDS011;21895;47.072;15.132;2023-06-19T09:42:32;8.82;;;5.12;;
20928;SDS011;21895;47.072;15.132;2023-06-19T09:45:01;7.05;;;4.32;;
20928;SDS011;21895;47.072;15.132;2023-06-19T09:47:32;7.65;;;5.00;;
20928;SDS011;21895;47.072;15.132;2023-06-19T09:50:13;7.93;;;4.40;;
20928;SDS011;21895;47.072;15.132;2023-06-19T09:52:41;7.47;;;4.70;;
20928;SDS011;21895;47.072;15.132;2023-06-19T09:55:10;7.55;;;4.53;;
20928;SDS011;21895;47.072;15.132;2023-06-19T09:57:40;9.77;;;4.40;;
20928;SDS011;21895;47.072;15.132;2023-06-19T10:00:11;6.90;;;4.55;;
20928;SDS011;21895;47.072;15.132;2023-06-19T10:02:47;7.40;;;4.87;;
20928;SDS011;21895;47.072;15.132;2023-06-19T10:05:15;8.55;;;4.93;;
20928;SDS011;21895;47.072;15.132;2023-06-19T10:07:44;6.55;;;4.30;;
20928;SDS011;21895;47.072;15.132;2023-06-19T10:10:33;7.68;;;4.87;;
20928;SDS011;21895;47.072;15.132;2023-06-19T10:13:14;8.75;;;4.57;;
20928;SDS011;21895;47.072;15.132;2023-06-19T10:15:43;7.80;;;4.45;;
20928;SDS011;21895;47.072;15.132;2023-06-19T10:18:15;8.10;;;4.72;;
20928;SDS011;21895;47.072;15.132;2023-06-19T10:20:44;8.95;;;4.85;;
20928;SDS011;21895;47.072;15.132;2023-06-19T10:23:20;9.43;;;4.68;;
20928;SDS011;21895;47.072;15.132;2023-06-19T10:25:56;7.22;;;4.50;;
20928;SDS011;21895;47.072;15.132;2023-06-19T10:28:28;7.00;;;4.87;;
20928;SDS011;21895;47.072;15.132;2023-06-19T10:31:00;7.07;;;4.53;;
20928;SDS011;21895;47.072;15.132;2023-06-19T10:33:32;7.87;;;4.60;;
20928;SDS011;21895;47.072;15.132;2023-06-19T10:36:18;6.80;;;4.62;;
20928;SDS011;21895;47.072;15.132;2023-06-19T10:38:48;8.25;;;4.93;;
20928;SDS011;21895;47.072;15.132;2023-06-19T10:41:25;10.32;;;4.85;;
20928;SDS011;21895;47.072;15.132;2023-06-19T10:43:52;7.75;;;5.07;;
20928;SDS011;21895;47.072;15.132;2023-06-19T10:46:40;7.43;;;4.85;;
20928;SDS011;21895;47.072;15.132;2023-06-19T10:49:07;7.60;;;4.72;;
20928;SDS011;21895;47.072;15.132;2023-06-19T10:51:39;7.53;;;4.55;;
20928;SDS011;21895;47.072;15.132;2023-06-19T10:54:09;6.97;;;5.12;;
20928;SDS011;21895;47.072;15.132;2023-06-19T10:56:36;7.37;;;4.93;;
20928;SDS011;21895;47.072;15.132;2023-06-19T10:59:06;7.43;;;4.75;;
20928;SDS011;21895;47.072;15.132;2023-06-19T11:01:38;8.55;;;4.78;;
20928;SDS011;21895;47.072;15.132;2023-06-19T11:04:12;8.98;;;5.07;;
20928;SDS011;21895;47.072;15.132;2023-06-19T11:06:41;8.80;;;4.72;;
20928;SDS011;21895;47.072;15.132;2023-06-19T11:09:10;8.77;;;5.30;;
20928;SDS011;21895;47.072;15.132;2023-06-19T11:11:39;8.75;;;5.00;;
20928;SDS011;21895;47.072;15.132;2023-06-19T11:14:14;7.37;;;4.87;;
20928;SDS011;21895;47.072;15.132;2023-06-19T11:16:42;8.23;;;4.75;;
20928;SDS011;21895;47.072;15.132;2023-06-19T11:19:16;8.35;;;4.72;;
20928;SDS011;21895;47.072;15.132;2023-06-19T11:21:49;7.60;;;4.97;;
20928;SDS011;21895;47.072;15.132;2023-06-19T11:24:18;7.12;;;4.90;;
20928;SDS011;21895;47.072;15.132;2023-06-19T11:26:49;6.60;;;4.78;;
20928;SDS011;21895;47.072;15.132;2023-06-19T11:29:18;10.32;;;5.05;;
20928;SDS011;21895;47.072;15.132;2023-06-19T11:32:04;9.18;;;4.93;;
20928;SDS011;21895;47.072;15.132;2023-06-19T11:34:34;9.75;;;5.80;;
20928;SDS011;21895;47.072;15.132;2023-06-19T11:37:10;7.97;;;4.95;;
20928;SDS011;21895;47.072;15.132;2023-06-19T11:39:45;9.48;;;4.87;;
20928;SDS011;21895;47.072;15.132;2023-06-19T11:42:13;8.60;;;5.00;;
20928;SDS011;21895;47.072;15.132;2023-06-19T11:45:01;7.62;;;4.65;;
20928;SDS011;21895;47.072;15.132;2023-06-19T11:47:32;7.82;;;4.90;;
20928;SDS011;21895;47.072;15.132;2023-06-19T11:49:59;7.50;;;5.22;;
20928;SDS011;21895;47.072;15.132;2023-06-19T11:52:28;8.35;;;5.07;;
20928;SDS011;21895;47.072;15.132;2023-06-19T11:54:55;6.75;;;4.62;;
20928;SDS011;21895;47.072;15.132;2023-06-19T11:57:22;7.20;;;4.70;;
20928;SDS011;21895;47.072;15.132;2023-06-19T11:59:48;11.90;;;5.43;;
20928;SDS011;21895;47.072;15.132;2023-06-19T12:02:15;7.60;;;4.87;;
20928;SDS011;21895;47.072;15.132;2023-06-19T12:04:42;9.13;;;5.00;;
20928;SDS011;21895;47.072;15.132;2023-06-19T12:07:09;7.25;;;5.30;;
20928;SDS011;21895;47.072;15.132;2023-06-19T12:09:37;8.45;;;5.05;;
20928;SDS011;21895;47.072;15.132;2023-06-19T12:12:05;7.43;;;5.20;;
20928;SDS011;21895;47.072;15.132;2023-06-19T12:14:33;9.73;;;5.32;;
20928;SDS011;21895;47.072;15.132;2023-06-19T12:16:59;7.45;;;4.53;;
20928;SDS011;21895;47.072;15.132;2023-06-19T12:19:26;8.30;;;5.03;;
20928;SDS011;21895;47.072;15.132;2023-06-19T12:21:53;8.20;;;4.87;;
20928;SDS011;21895;47.072;15.132;2023-06-19T12:24:20;8.60;;;4.80;;
20928;SDS011;21895;47.072;15.132;2023-06-19T12:26:46;7.20;;;4.62;;
20928;SDS011;21895;47.072;15.132;2023-06-19T12:29:13;7.95;;;4.90;;
20928;SDS011;21895;47.072;15.132;2023-06-19T12:31:39;5.90;;;4.28;;
20928;SDS011;21895;47.072;15.132;2023-06-19T12:34:06;6.95;;;4.50;;
20928;SDS011;21895;47.072;15.132;2023-06-19T12:36:54;7.53;;;5.00;;
20928;SDS011;21895;47.072;15.132;2023-06-19T12:39:22;7.22;;;4.45;;
20928;SDS011;21895;47.072;15.132;2023-06-19T12:41:50;9.02;;;4.20;;
20928;SDS011;21895;47.072;15.132;2023-06-19T12:44:17;6.68;;;4.40;;
20928;SDS011;21895;47.072;15.132;2023-06-19T12:46:44;6.32;;;4.75;;
20928;SDS011;21895;47.072;15.132;2023-06-19T12:49:10;8.27;;;4.62;;
20928;SDS011;21895;47.072;15.132;2023-06-19T12:51:37;6.15;;;4.50;;
20928;SDS011;21895;47.072;15.132;2023-06-19T12:54:04;6.53;;;4.18;;
20928;SDS011;21895;47.072;15.132;2023-06-19T12:56:30;7.25;;;4.45;;
20928;SDS011;21895;47.072;15.132;2023-06-19T12:58:57;7.25;;;4.68;;
20928;SDS011;21895;47.072;15.132;2023-06-19T13:01:23;8.57;;;4.78;;
20928;SDS011;21895;47.072;15.132;2023-06-19T13:03:50;6.05;;;4.40;;
20928;SDS011;21895;47.072;15.132;2023-06-19T13:06:17;10.52;;;5.03;;
20928;SDS011;21895;47.072;15.132;2023-06-19T13:08:44;6.80;;;4.30;;
20928;SDS011;21895;47.072;15.132;2023-06-19T13:11:11;7.97;;;4.45;;
20928;SDS011;21895;47.072;15.132;2023-06-19T13:13:38;7.18;;;4.30;;
20928;SDS011;21895;47.072;15.132;2023-06-19T13:16:04;7.70;;;4.95;;
20928;SDS011;21895;47.072;15.132;2023-06-19T13:18:31;7.72;;;4.65;;
20928;SDS011;21895;47.072;15.132;2023-06-19T13:20:57;8.82;;;4.87;;
20928;SDS011;21895;47.072;15.132;2023-06-19T13:23:24;6.43;;;4.30;;
20928;SDS011;21895;47.072;15.132;2023-06-19T13:25:50;7.53;;;4.68;;
20928;SDS011;21895;47.072;15.132;2023-06-19T13:28:17;7.25;;;4.50;;
20928;SDS011;21895;47.072;15.132;2023-06-19T13:30:44;7.07;;;4.55;;
20928;SDS011;21895;47.072;15.132;2023-06-19T13:33:10;6.45;;;4.22;;
20928;SDS011;21895;47.072;15.132;2023-06-19T13:35:37;6.30;;;4.50;;
20928;SDS011;21895;47.072;15.132;2023-06-19T13:38:04;11.55;;;4.47;;
20928;SDS011;21895;47.072;15.132;2023-06-19T13:40:32;9.85;;;4.25;;
20928;SDS011;21895;47.072;15.132;2023-06-19T13:42:59;6.95;;;4.45;;
20928;SDS011;21895;47.072;15.132;2023-06-19T13:45:28;5.95;;;4.03;;
20928;SDS011;21895;47.072;15.132;2023-06-19T13:47:54;7.50;;;4.78;;
20928;SDS011;21895;47.072;15.132;2023-06-19T13:50:21;6.85;;;3.90;;
20928;SDS011;21895;47.072;15.132;2023-06-19T13:52:48;7.28;;;4.62;;
20928;SDS011;21895;47.072;15.132;2023-06-19T13:55:15;7.75;;;4.70;;
20928;SDS011;21895;47.072;15.132;2023-06-19T13:57:42;7.22;;;4.40;;
20928;SDS011;21895;47.072;15.132;2023-06-19T14:00:10;7.45;;;4.35;;
20928;SDS011;21895;47.072;15.132;2023-06-19T14:02:38;6.68;;;4.32;;
20928;SDS011;21895;47.072;15.132;2023-06-19T14:05:05;9.27;;;5.20;;
20928;SDS011;21895;47.072;15.132;2023-06-19T14:07:34;8.45;;;4.90;;
20928;SDS011;21895;47.072;15.132;2023-06-19T14:10:02;6.75;;;4.28;;
20928;SDS011;21895;47.072;15.132;2023-06-19T14:12:30;9.52;;;4.43;;
20928;SDS011;21895;47.072;15.132;2023-06-19T14:14:57;6.78;;;4.35;;
20928;SDS011;21895;47.072;15.132;2023-06-19T14:17:24;6.53;;;4.15;;
20928;SDS011;21895;47.072;15.132;2023-06-19T14:19:50;6.03;;;3.90;;
20928;SDS011;21895;47.072;15.132;2023-06-19T14:22:17;6.40;;;4.28;;
20928;SDS011;21895;47.072;15.132;2023-06-19T14:24:44;7.37;;;4.50;;
20928;SDS011;21895;47.072;15.132;2023-06-19T14:27:11;7.87;;;4.50;;
20928;SDS011;21895;47.072;15.132;2023-06-19T14:29:38;5.35;;;3.60;;
20928;SDS011;21895;47.072;15.132;2023-06-19T14:32:04;5.57;;;4.05;;
20928;SDS011;21895;47.072;15.132;2023-06-19T14:34:31;6.50;;;4.15;;
20928;SDS011;21895;47.072;15.132;2023-06-19T14:36:57;6.70;;;4.43;;
20928;SDS011;21895;47.072;15.132;2023-06-19T14:39:24;6.82;;;3.92;;
20928;SDS011;21895;47.072;15.132;2023-06-19T14:41:51;7.00;;;4.65;;
20928;SDS011;21895;47.072;15.132;2023-06-19T14:44:17;8.27;;;4.32;;
20928;SDS011;21895;47.072;15.132;2023-06-19T14:46:44;8.52;;;4.30;;